Time;durP1;ratioP1;P1;durP2;ratioP2;P2;SDS_P1;SDS_P2;PMS_P1;PMS_P2;Temp;Humidity;BMP_temperature;BMP_pressure;BME280_temperature;BME280_humidity;BME280_pressure;Samples;Min_cycle;Max_cycle;Signal;HPM_P1;HPM_P2
2022/07/02 00:01:57;;;;;;;7.53;1.50;;;16.60;99.90;;;;;;5033666;28;20478;-51
2022/07/02 00:04:30;;;;;;;5.57;1.33;;;16.60;99.90;;;;;;5033137;28;20084;-39
2022/07/02 00:06:56;;;;;;;5.00;1.50;;;16.60;99.90;;;;;;5034116;28;20104;-39
2022/07/02 00:09:22;;;;;;;5.10;2.08;;;16.50;99.90;;;;;;5032448;28;20464;-39
2022/07/02 00:11:49;;;;;;;7.43;2.10;;;16.50;99.90;;;;;;5033839;28;20064;-40
2022/07/02 00:14:15;;;;;;;9.05;2.45;;;16.50;99.90;;;;;;5032220;28;20402;-39
2022/07/02 00:16:46;;;;;;;14.45;2.83;;;16.50;99.90;;;;;;5030806;28;20055;-39
2022/07/02 00:19:15;;;;;;;11.85;2.95;;;16.50;99.90;;;;;;5031466;28;20512;-39
2022/07/02 00:21:41;;;;;;;8.02;2.58;;;16.40;99.90;;;;;;5031111;28;20029;-34
2022/07/02 00:24:08;;;;;;;7.90;2.47;;;16.40;99.90;;;;;;5033067;28;20026;-34
2022/07/02 00:26:38;;;;;;;8.82;2.22;;;16.40;99.90;;;;;;5034857;28;20036;-30
2022/07/02 00:29:38;;;;;;;11.18;2.70;;;16.40;99.90;;;;;;5031547;28;20034;-37
2022/07/02 00:32:04;;;;;;;15.32;3.10;;;16.40;99.90;;;;;;5030291;28;20026;-39
2022/07/02 00:34:33;;;;;;;12.15;2.97;;;16.30;99.90;;;;;;5035769;28;20371;-33
2022/07/02 00:36:59;;;;;;;3.25;1.48;;;16.30;99.90;;;;;;5030231;28;20144;-41
2022/07/02 00:39:25;;;;;;;6.30;1.75;;;16.30;99.90;;;;;;5028794;28;20494;-33
2022/07/02 00:41:52;;;;;;;7.72;1.77;;;16.30;99.90;;;;;;5032478;28;20043;-31
2022/07/02 00:44:22;;;;;;;12.85;2.67;;;16.30;99.90;;;;;;5029320;28;20028;-35
2022/07/02 00:46:48;;;;;;;9.68;2.65;;;16.30;99.90;;;;;;5033521;28;20021;-39
2022/07/02 00:49:13;;;;;;;11.35;2.92;;;16.30;99.90;;;;;;5029967;28;20026;-38
2022/07/02 00:51:39;;;;;;;21.48;4.47;;;16.30;99.90;;;;;;5033326;28;20021;-37
2022/07/02 00:54:05;;;;;;;10.52;3.90;;;16.30;99.90;;;;;;5031743;28;20069;-38
2022/07/02 00:56:32;;;;;;;19.45;5.55;;;16.30;99.90;;;;;;5030714;28;20037;-39
2022/07/02 00:58:57;;;;;;;18.98;5.35;;;16.30;99.90;;;;;;5032313;28;20386;-39
2022/07/02 01:01:23;;;;;;;17.40;4.95;;;16.20;99.90;;;;;;5032496;28;20087;-36
2022/07/02 01:03:51;;;;;;;20.65;5.10;;;16.20;99.90;;;;;;5031196;28;20482;-30
2022/07/02 01:06:17;;;;;;;22.83;5.43;;;16.20;99.90;;;;;;5032002;28;20033;-35
2022/07/02 01:11:31;;;;;;;15.02;4.00;;;16.20;99.90;;;;;;5031245;28;20033;-38
2022/07/02 01:13:57;;;;;;;13.95;3.60;;;16.10;99.90;;;;;;5029003;28;20061;-47
2022/07/02 01:16:23;;;;;;;9.38;3.05;;;16.10;99.90;;;;;;5030355;28;20036;-36
2022/07/02 01:18:49;;;;;;;12.35;3.08;;;16.10;99.90;;;;;;5030027;28;20026;-38
2022/07/02 01:21:15;;;;;;;9.52;3.10;;;16.10;99.90;;;;;;5031707;28;20512;-36
2022/07/02 01:23:40;;;;;;;7.68;2.67;;;16.10;99.90;;;;;;5031475;28;20500;-37
2022/07/02 01:26:06;;;;;;;10.27;4.18;;;16.10;99.90;;;;;;5051885;28;20104;-37
2022/07/02 01:28:31;;;;;;;5.07;2.65;;;16.10;99.90;;;;;;5035897;28;20037;-38
2022/07/02 01:30:58;;;;;;;9.10;2.33;;;16.10;99.90;;;;;;5031246;28;20042;-38
2022/07/02 01:33:23;;;;;;;10.13;3.33;;;16.10;99.90;;;;;;5037936;28;20485;-37
2022/07/02 01:35:49;;;;;;;6.15;2.50;;;16.10;99.90;;;;;;5030612;28;20052;-37
2022/07/02 01:38:15;;;;;;;2.47;1.70;;;16.10;99.90;;;;;;5033317;28;20025;-39
2022/07/02 01:40:40;;;;;;;4.82;1.90;;;16.10;99.90;;;;;;5036097;28;20480;-39
2022/07/02 01:43:06;;;;;;;9.63;2.42;;;16.10;99.90;;;;;;5052863;28;20079;-38
2022/07/02 01:45:32;;;;;;;4.63;2.08;;;16.10;99.90;;;;;;5036034;28;20022;-40
2022/07/02 01:47:58;;;;;;;1.75;1.48;;;16.00;99.90;;;;;;5036895;28;20024;-39
2022/07/02 01:50:23;;;;;;;2.95;1.30;;;16.00;99.90;;;;;;5053188;28;20108;-38
2022/07/02 01:52:51;;;;;;;4.97;1.50;;;16.00;99.90;;;;;;5030369;28;20501;-57
2022/07/02 01:55:17;;;;;;;4.50;2.17;;;16.00;99.90;;;;;;5035098;28;20055;-38
2022/07/02 01:57:42;;;;;;;6.30;1.60;;;16.00;99.90;;;;;;5036406;28;20470;-38
2022/07/02 02:00:10;;;;;;;7.80;1.73;;;15.90;99.90;;;;;;5035087;28;20032;-37
2022/07/02 02:02:36;;;;;;;6.18;1.70;;;15.90;99.90;;;;;;5035494;28;20032;-37
2022/07/02 02:05:02;;;;;;;3.90;1.50;;;15.90;99.90;;;;;;5035012;28;20072;-39
2022/07/02 02:07:28;;;;;;;2.00;1.05;;;15.90;99.90;;;;;;5030430;28;20416;-38
2022/07/02 02:09:54;;;;;;;2.60;1.00;;;15.90;99.90;;;;;;5034411;28;20224;-38
2022/07/02 02:12:20;;;;;;;8.95;1.30;;;15.80;99.90;;;;;;5041676;28;20551;-33
2022/07/02 02:14:46;;;;;;;1.63;1.33;;;15.80;99.90;;;;;;5034094;28;20033;-33
2022/07/02 02:17:12;;;;;;;3.85;1.33;;;15.80;99.90;;;;;;5033811;28;20044;-37
2022/07/02 02:19:38;;;;;;;2.63;1.17;;;15.80;99.90;;;;;;5041972;28;20029;-37
2022/07/02 02:22:03;;;;;;;3.40;1.30;;;15.80;99.90;;;;;;5035856;28;20367;-39
2022/07/02 02:24:29;;;;;;;4.50;1.35;;;15.70;99.90;;;;;;5035373;28;20026;-40
2022/07/02 02:26:54;;;;;;;3.67;1.67;;;15.70;99.90;;;;;;5036024;28;20493;-38
2022/07/02 02:29:21;;;;;;;6.13;1.30;;;15.70;99.90;;;;;;5035864;28;20030;-38
2022/07/02 02:31:47;;;;;;;3.10;1.15;;;15.70;99.90;;;;;;5033389;28;20461;-38
2022/07/02 02:34:12;;;;;;;2.00;1.30;;;15.70;99.90;;;;;;5045191;28;20105;-38
2022/07/02 02:36:38;;;;;;;6.80;1.67;;;15.70;99.90;;;;;;5023758;28;20477;-38
2022/07/02 02:39:04;;;;;;;3.28;1.10;;;15.70;99.90;;;;;;5030179;28;20026;-38
2022/07/02 02:41:29;;;;;;;2.25;1.40;;;15.70;99.90;;;;;;5033785;28;20034;-39
2022/07/02 02:43:55;;;;;;;6.40;2.38;;;15.60;99.90;;;;;;5034595;28;20560;-33
2022/07/02 02:46:20;;;;;;;3.17;1.30;;;15.60;99.90;;;;;;5035903;28;20029;-31
2022/07/02 02:48:46;;;;;;;6.60;1.58;;;15.50;99.90;;;;;;5045614;28;20086;-34
2022/07/02 02:51:15;;;;;;;3.88;1.00;;;15.50;99.90;;;;;;5033735;28;20033;-36
2022/07/02 02:53:42;;;;;;;2.28;1.20;;;15.50;99.90;;;;;;5038689;28;20481;-30
2022/07/02 02:56:09;;;;;;;1.85;1.17;;;15.50;99.90;;;;;;5035378;28;20025;-32
2022/07/02 02:58:35;;;;;;;1.98;0.95;;;15.50;99.90;;;;;;5045927;28;20021;-30
2022/07/02 03:01:01;;;;;;;1.10;1.00;;;15.50;99.90;;;;;;5045379;28;20029;-33
2022/07/02 03:03:26;;;;;;;3.17;1.02;;;15.50;99.90;;;;;;5033823;28;20410;-36
2022/07/02 03:05:52;;;;;;;2.50;0.95;;;15.40;99.90;;;;;;5035547;28;20378;-56
2022/07/02 03:08:18;;;;;;;3.80;1.33;;;15.40;99.90;;;;;;5042205;28;20028;-35
2022/07/02 03:10:44;;;;;;;3.45;1.00;;;15.30;99.90;;;;;;5055003;28;20397;-31
2022/07/02 03:13:09;;;;;;;2.72;1.17;;;15.40;99.90;;;;;;5036340;28;20087;-38
2022/07/02 03:15:35;;;;;;;2.05;1.40;;;15.30;99.90;;;;;;5032702;28;20033;-30
2022/07/02 03:18:01;;;;;;;1.88;0.90;;;15.30;99.90;;;;;;5034198;28;20037;-48
2022/07/02 03:20:27;;;;;;;1.45;0.88;;;15.30;99.90;;;;;;5034988;28;20021;-37
2022/07/02 03:22:52;;;;;;;1.67;1.13;;;15.30;99.90;;;;;;5033560;28;20029;-32
2022/07/02 03:25:18;;;;;;;3.88;1.08;;;15.30;99.90;;;;;;5034856;28;20018;-38
2022/07/02 03:27:43;;;;;;;1.30;1.02;;;15.20;99.90;;;;;;5046558;28;20135;-30
2022/07/02 03:30:10;;;;;;;5.47;1.33;;;15.20;99.90;;;;;;5042019;28;20032;-45
2022/07/02 03:32:36;;;;;;;1.88;1.02;;;15.20;99.90;;;;;;5033722;28;20029;-63
2022/07/02 03:35:01;;;;;;;3.97;1.17;;;15.20;99.90;;;;;;5033952;28;20025;-38
2022/07/02 03:37:28;;;;;;;5.35;1.60;;;15.20;99.90;;;;;;5043058;28;20045;-38
2022/07/02 03:39:54;;;;;;;5.03;1.38;;;15.20;99.90;;;;;;5054883;28;20473;-38
2022/07/02 03:42:20;;;;;;;6.05;1.38;;;15.20;99.90;;;;;;5047066;28;20100;-38
2022/07/02 03:44:45;;;;;;;2.75;1.40;;;15.20;99.90;;;;;;5033932;28;20057;-41
2022/07/02 03:47:11;;;;;;;2.15;1.50;;;15.20;99.90;;;;;;5033518;28;20481;-38
2022/07/02 03:49:37;;;;;;;1.92;1.05;;;15.10;99.90;;;;;;5034653;28;20427;-38
2022/07/02 03:52:04;;;;;;;3.05;1.38;;;15.10;99.90;;;;;;5049540;28;20026;-43
2022/07/02 03:54:30;;;;;;;5.90;1.55;;;15.10;99.90;;;;;;5033589;28;20513;-39
2022/07/02 03:56:55;;;;;;;7.70;1.25;;;15.10;99.90;;;;;;5035918;28;20029;-38
2022/07/02 03:59:21;;;;;;;2.05;1.45;;;15.10;99.90;;;;;;5032946;28;20025;-38
2022/07/02 04:01:47;;;;;;;7.68;1.88;;;15.10;99.90;;;;;;5032598;28;20025;-33
2022/07/02 04:04:12;;;;;;;2.92;1.27;;;15.10;99.90;;;;;;5034243;28;20017;-39
2022/07/02 04:06:38;;;;;;;4.18;1.20;;;15.00;99.90;;;;;;5032633;28;20021;-32
2022/07/02 04:09:04;;;;;;;3.38;1.30;;;15.10;99.90;;;;;;5033944;28;20056;-33
2022/07/02 04:11:48;;;;;;;2.25;1.00;;;15.10;99.90;;;;;;5039595;28;20099;-32
2022/07/02 04:14:14;;;;;;;4.18;1.02;;;15.10;99.90;;;;;;5033810;28;20043;-31
2022/07/02 04:16:39;;;;;;;4.35;1.00;;;15.00;99.90;;;;;;5036864;28;20401;-38
2022/07/02 04:19:05;;;;;;;5.10;1.60;;;15.10;99.90;;;;;;5054063;28;20402;-32
2022/07/02 04:21:30;;;;;;;1.30;1.20;;;15.10;99.90;;;;;;5046821;28;20053;-35
2022/07/02 04:23:56;;;;;;;3.65;1.20;;;15.10;99.90;;;;;;5032636;28;20025;-30
2022/07/02 04:26:22;;;;;;;10.35;1.48;;;15.20;99.90;;;;;;5040507;28;20033;-38
2022/07/02 04:28:47;;;;;;;1.52;0.90;;;15.20;99.90;;;;;;5047631;28;20381;-41
2022/07/02 04:31:13;;;;;;;6.40;1.55;;;15.20;99.90;;;;;;5032298;28;20474;-60
2022/07/02 04:33:38;;;;;;;5.05;1.08;;;15.20;99.90;;;;;;5033659;28;20030;-38
2022/07/02 04:36:04;;;;;;;2.92;1.10;;;15.30;99.90;;;;;;5032730;28;20040;-38
2022/07/02 04:38:30;;;;;;;3.63;1.70;;;15.20;99.90;;;;;;5042644;28;20367;-39
2022/07/02 04:40:55;;;;;;;2.63;1.05;;;15.30;99.90;;;;;;5032092;28;20029;-38
2022/07/02 04:43:21;;;;;;;4.05;1.30;;;15.30;99.90;;;;;;5033497;28;20056;-39
2022/07/02 04:45:46;;;;;;;1.17;0.95;;;15.30;99.90;;;;;;5040410;28;20127;-36
2022/07/02 04:48:12;;;;;;;1.98;1.00;;;15.40;99.90;;;;;;5050379;28;20063;-38
2022/07/02 04:50:38;;;;;;;5.80;1.08;;;15.40;99.90;;;;;;5030765;28;20111;-38
2022/07/02 04:53:03;;;;;;;4.75;1.30;;;15.40;99.90;;;;;;5033653;28;20389;-37
2022/07/02 04:55:29;;;;;;;6.22;1.20;;;15.50;99.90;;;;;;5032437;28;20025;-38
2022/07/02 04:57:54;;;;;;;4.40;1.10;;;15.50;99.90;;;;;;5031495;28;20072;-34
2022/07/02 05:00:20;;;;;;;5.47;1.60;;;15.60;99.90;;;;;;5032602;28;20533;-33
2022/07/02 05:02:46;;;;;;;3.70;1.25;;;15.60;99.90;;;;;;5039323;28;20017;-30
2022/07/02 05:05:11;;;;;;;1.30;1.20;;;15.60;99.90;;;;;;5033474;28;20512;-33
2022/07/02 05:07:37;;;;;;;9.25;1.55;;;15.60;99.90;;;;;;5032245;28;20040;-34
2022/07/02 05:10:03;;;;;;;1.98;1.13;;;15.60;99.90;;;;;;5032086;28;20061;-30
2022/07/02 05:12:29;;;;;;;5.35;1.63;;;15.70;99.90;;;;;;5034713;28;20026;-35
2022/07/02 05:14:54;;;;;;;2.03;0.80;;;15.70;99.90;;;;;;5031413;28;20041;-34
2022/07/02 05:17:20;;;;;;;1.52;1.10;;;15.70;99.90;;;;;;5031971;28;20056;-33
2022/07/02 05:19:46;;;;;;;6.18;1.35;;;15.70;99.90;;;;;;5032266;28;20037;-39
2022/07/02 05:22:11;;;;;;;0.73;0.70;;;15.80;99.90;;;;;;5036828;28;20017;-31
2022/07/02 05:24:37;;;;;;;1.63;1.05;;;15.80;99.90;;;;;;5033550;28;20021;-31
2022/07/02 05:27:03;;;;;;;0.80;0.80;;;15.90;99.90;;;;;;5035616;28;20034;-34
2022/07/02 05:29:28;;;;;;;1.10;1.00;;;15.90;99.90;;;;;;5036444;28;20033;-49
2022/07/02 05:31:54;;;;;;;3.80;1.13;;;15.90;99.90;;;;;;5042603;28;20024;-32
2022/07/02 05:34:19;;;;;;;3.40;1.15;;;16.10;99.90;;;;;;5038788;28;20056;-30
2022/07/02 05:36:45;;;;;;;1.80;1.00;;;16.10;99.90;;;;;;5036275;28;20025;-35
2022/07/02 05:39:11;;;;;;;2.55;0.93;;;16.10;99.90;;;;;;5036872;28;20017;-32
2022/07/02 05:41:36;;;;;;;1.85;1.02;;;16.20;99.90;;;;;;5022757;28;20032;-33
2022/07/02 05:44:02;;;;;;;3.58;1.00;;;16.20;99.90;;;;;;5041553;28;20040;-31
2022/07/02 05:46:27;;;;;;;0.70;0.70;;;16.30;99.90;;;;;;5043527;28;20033;-33
2022/07/02 05:48:53;;;;;;;3.85;0.90;;;16.30;99.90;;;;;;5042023;28;20029;-34
2022/07/02 05:51:18;;;;;;;1.25;1.05;;;16.40;99.90;;;;;;5034742;28;20037;-34
2022/07/02 05:53:44;;;;;;;3.20;0.70;;;16.40;99.90;;;;;;5034941;28;20035;-32
2022/07/02 05:56:10;;;;;;;1.85;1.02;;;16.50;99.90;;;;;;5035831;28;20185;-31
2022/07/02 05:58:35;;;;;;;2.47;0.95;;;16.60;99.90;;;;;;5033812;28;20021;-34
2022/07/02 06:01:01;;;;;;;3.35;0.98;;;16.60;99.90;;;;;;5035171;28;20163;-32
2022/07/02 06:03:26;;;;;;;2.55;0.70;;;16.80;99.90;;;;;;5034801;28;20470;-38
2022/07/02 06:08:39;;;;;;;1.80;0.85;;;17.00;99.90;;;;;;5036486;28;20032;-37
2022/07/02 06:11:24;;;;;;;1.90;0.88;;;17.20;99.90;;;;;;5036295;28;20437;-32
2022/07/02 06:13:49;;;;;;;2.22;1.08;;;17.60;99.90;;;;;;5035122;28;20116;-32
2022/07/02 06:16:15;;;;;;;2.70;1.90;;;18.00;99.90;;;;;;5034431;28;20171;-36
2022/07/02 06:18:41;;;;;;;0.88;0.63;;;18.80;99.90;;;;;;5036223;28;20067;-32
2022/07/02 06:21:06;;;;;;;0.77;0.50;;;20.00;99.90;;;;;;5033635;28;20026;-33
2022/07/02 06:23:32;;;;;;;0.85;0.68;;;21.50;99.90;;;;;;5034689;28;20354;-32
2022/07/02 06:25:57;;;;;;;2.75;1.13;;;22.40;99.90;;;;;;5035402;28;20037;-31
2022/07/02 06:28:23;;;;;;;4.18;1.02;;;23.20;99.90;;;;;;5035882;28;20022;-30
2022/07/02 06:30:49;;;;;;;0.73;0.63;;;24.80;98.30;;;;;;5033180;28;20083;-33
2022/07/02 06:33:14;;;;;;;3.53;0.65;;;26.10;97.50;;;;;;5033851;28;20451;-33
2022/07/02 06:35:42;;;;;;;0.95;0.40;;;27.40;95.80;;;;;;5033181;28;20030;-33
2022/07/02 06:38:08;;;;;;;2.22;0.50;;;28.20;94.50;;;;;;5033073;28;20029;-31
2022/07/02 06:40:34;;;;;;;1.30;0.90;;;29.00;93.90;;;;;;5034767;28;20032;-33
2022/07/02 06:42:59;;;;;;;1.13;0.60;;;29.50;92.80;;;;;;5034785;28;20052;-33
2022/07/02 06:45:25;;;;;;;3.35;0.82;;;29.80;92.10;;;;;;5035615;28;20072;-31
2022/07/02 06:47:51;;;;;;;4.57;0.40;;;29.70;91.90;;;;;;5035570;28;20025;-31
2022/07/02 06:50:18;;;;;;;0.82;0.43;;;29.10;91.80;;;;;;5033313;28;20033;-38
2022/07/02 06:52:45;;;;;;;;;;;27.90;92.10;;;;;;5032900;28;20112;-38
2022/07/02 06:55:12;;;;;;;2.15;0.50;;;26.50;93.10;;;;;;5033081;28;19909;-32
2022/07/02 06:57:38;;;;;;;0.22;0.15;;;25.30;93.70;;;;;;5034339;28;20025;-35
2022/07/02 07:00:05;;;;;;;6.22;0.57;;;24.10;94.40;;;;;;5034503;28;20424;-36
2022/07/02 07:02:30;;;;;;;1.02;0.32;;;23.60;94.70;;;;;;5035016;28;20379;-37
2022/07/02 07:04:56;;;;;;;2.15;0.50;;;23.70;94.80;;;;;;5033434;28;20037;-33
2022/07/02 07:07:28;;;;;;;1.15;0.40;;;24.20;94.30;;;;;;5035213;28;20033;-38
2022/07/02 07:09:55;;;;;;;0.82;0.50;;;24.60;93.30;;;;;;5035148;28;20026;-38
2022/07/02 07:12:21;;;;;;;1.95;0.60;;;25.30;93.20;;;;;;5017537;28;20034;-37
2022/07/02 07:14:47;;;;;;;3.03;0.40;;;26.00;92.90;;;;;;5032563;28;20404;-39
2022/07/02 07:17:12;;;;;;;1.65;0.38;;;27.30;92.40;;;;;;5032614;28;21179;-39
2022/07/02 07:19:38;;;;;;;0.82;0.40;;;28.40;91.50;;;;;;5033836;28;20025;-36
2022/07/02 07:22:04;;;;;;;0.47;0.30;;;29.10;90.60;;;;;;5028217;28;20064;-38
2022/07/02 07:24:30;;;;;;;0.73;0.20;;;29.30;90.00;;;;;;5030818;28;20029;-61
2022/07/02 07:26:57;;;;;;;0.75;0.40;;;29.70;90.00;;;;;;5033948;28;20116;-37
2022/07/02 07:29:23;;;;;;;1.13;0.50;;;30.00;88.80;;;;;;5014970;28;20029;-39
2022/07/02 07:31:49;;;;;;;1.25;0.20;;;30.00;88.10;;;;;;5032710;28;20543;-41
2022/07/02 07:34:15;;;;;;;0.98;0.30;;;29.80;88.40;;;;;;5032691;28;20021;-37
2022/07/02 07:36:41;;;;;;;1.55;0.43;;;29.70;88.60;;;;;;5037525;28;20040;-37
2022/07/02 07:39:07;;;;;;;2.22;0.40;;;29.50;87.60;;;;;;5033575;28;20462;-39
2022/07/02 07:41:34;;;;;;;1.17;0.50;;;29.10;88.60;;;;;;5032416;28;20462;-38
2022/07/02 07:44:00;;;;;;;1.63;0.40;;;28.80;89.30;;;;;;5033371;28;20112;-39
2022/07/02 07:46:26;;;;;;;0.80;0.47;;;28.50;89.80;;;;;;5021014;28;20538;-34
2022/07/02 07:48:52;;;;;;;1.50;0.60;;;28.20;90.30;;;;;;5033599;28;20108;-33
2022/07/02 07:51:17;;;;;;;2.30;0.55;;;27.60;89.80;;;;;;5031701;28;20116;-31
2022/07/02 07:53:44;;;;;;;0.63;0.60;;;26.90;90.10;;;;;;5034361;28;20017;-31
2022/07/02 07:56:10;;;;;;;0.47;0.30;;;26.30;90.50;;;;;;5031939;28;20417;-31
2022/07/02 07:58:36;;;;;;;0.38;0.20;;;26.00;90.90;;;;;;5032682;28;20104;-33
2022/07/02 08:01:02;;;;;;;0.60;0.40;;;25.90;90.40;;;;;;5033788;28;20148;-34
2022/07/02 08:03:27;;;;;;;4.28;0.47;;;25.80;90.80;;;;;;5021827;28;20033;-31
2022/07/02 08:05:56;;;;;;;0.63;0.20;;;25.70;90.50;;;;;;5033253;28;20022;-38
2022/07/02 08:08:22;;;;;;;0.80;0.35;;;25.70;90.60;;;;;;5019969;28;20470;-32
2022/07/02 08:10:48;;;;;;;1.50;0.40;;;25.90;89.70;;;;;;5032551;28;20363;-37
2022/07/02 08:13:14;;;;;;;0.90;0.40;;;26.10;89.70;;;;;;5032140;28;20055;-33
2022/07/02 08:15:40;;;;;;;0.50;0.30;;;26.30;90.00;;;;;;5028587;28;20124;-34
2022/07/02 08:18:06;;;;;;;0.30;0.20;;;26.50;89.70;;;;;;5026083;28;20041;-36
2022/07/02 08:20:32;;;;;;;0.33;0.30;;;26.70;89.00;;;;;;5026445;28;20414;-37
2022/07/02 08:22:58;;;;;;;1.80;0.20;;;26.90;87.50;;;;;;5021661;28;20306;-35
2022/07/02 08:25:24;;;;;;;0.77;0.32;;;27.00;87.70;;;;;;5023380;28;20033;-31
2022/07/02 08:27:53;;;;;;;0.70;0.47;;;27.00;87.70;;;;;;5040700;28;20030;-33
2022/07/02 08:30:19;;;;;;;0.40;0.30;;;27.10;87.60;;;;;;5044524;28;20052;-35
2022/07/02 08:32:45;;;;;;;2.80;0.30;;;27.20;87.00;;;;;;5035493;28;20751;-38
2022/07/02 08:35:10;;;;;;;1.73;0.25;;;27.20;86.00;;;;;;5043736;28;20486;-37
2022/07/02 08:37:36;;;;;;;0.40;0.40;;;27.10;86.90;;;;;;5047495;28;20055;-48
2022/07/02 08:40:03;;;;;;;2.95;0.43;;;27.30;88.10;;;;;;5041104;28;20028;-40
2022/07/02 08:42:30;;;;;;;1.63;0.55;;;27.60;86.30;;;;;;5034057;28;20490;-39
2022/07/02 08:44:58;;;;;;;1.55;0.20;;;27.90;85.00;;;;;;5029684;28;20754;-39
2022/07/02 08:47:25;;;;;;;0.88;0.88;;;28.10;84.90;;;;;;5033767;28;21806;-33
2022/07/02 08:49:51;;;;;;;;;;;28.20;84.50;;;;;;5039865;28;20033;-37
2022/07/02 08:52:18;;;;;;;0.30;0.30;;;28.20;85.40;;;;;;5029335;28;20425;-34
2022/07/02 08:54:46;;;;;;;4.97;0.20;;;28.60;83.10;;;;;;5051037;28;20107;-39
2022/07/02 08:57:12;;;;;;;0.57;0.20;;;28.60;83.20;;;;;;5038301;28;20033;-40
2022/07/02 08:59:38;;;;;;;;;;;28.60;83.50;;;;;;5032159;28;20104;-40
2022/07/02 09:02:05;;;;;;;1.30;0.30;;;28.60;82.70;;;;;;5030292;28;19959;-41
2022/07/02 09:04:32;;;;;;;2.50;0.30;;;28.70;83.90;;;;;;5035741;28;20420;-36
2022/07/02 09:07:01;;;;;;;0.68;0.38;;;28.80;82.90;;;;;;5031097;28;20082;-31
2022/07/02 09:09:28;;;;;;;0.47;0.47;;;28.90;82.80;;;;;;5032586;28;20465;-35
2022/07/02 09:11:54;;;;;;;;;;;28.90;82.80;;;;;;5029141;28;20561;-32
2022/07/02 09:14:20;;;;;;;0.45;0.43;;;28.90;84.20;;;;;;5031831;28;20392;-34
2022/07/02 09:19:36;;;;;;;1.58;0.60;;;28.80;82.50;;;;;;5025350;28;20024;-30
2022/07/02 09:22:02;;;;;;;1.55;0.60;;;28.90;82.90;;;;;;5029044;28;20063;-38
2022/07/02 09:24:39;;;;;;;1.17;0.30;;;28.70;82.40;;;;;;5018450;28;20041;-35
2022/07/02 09:27:15;;;;;;;1.83;0.50;;;28.60;82.80;;;;;;5036700;28;20489;-35
2022/07/02 09:29:41;;;;;;;0.20;0.17;;;28.50;83.60;;;;;;5019105;28;20033;-33
2022/07/02 09:32:07;;;;;;;1.05;0.30;;;28.40;82.70;;;;;;5027932;28;20037;-40
2022/07/02 09:34:33;;;;;;;0.75;0.60;;;28.20;82.10;;;;;;5023926;28;20355;-36
2022/07/02 09:36:59;;;;;;;1.15;0.88;;;27.80;83.90;;;;;;5021663;28;20033;-33
2022/07/02 09:39:31;;;;;;;2.63;0.30;;;27.60;85.00;;;;;;5031424;28;20037;-34
2022/07/02 09:41:57;;;;;;;1.38;0.70;;;27.70;84.30;;;;;;5029868;28;20021;-48
2022/07/02 09:44:25;;;;;;;0.77;0.30;;;27.60;83.90;;;;;;5026813;28;20329;-40
2022/07/02 09:46:51;;;;;;;2.28;0.40;;;27.50;84.70;;;;;;5033203;28;20424;-54
2022/07/02 09:49:17;;;;;;;0.73;0.25;;;27.50;85.50;;;;;;5032282;28;20099;-38
2022/07/02 09:51:52;;;;;;;0.65;0.20;;;27.60;84.40;;;;;;5032013;28;20030;-39
2022/07/02 09:54:22;;;;;;;0.43;0.30;;;27.60;84.70;;;;;;5032395;28;20487;-39
2022/07/02 09:56:55;;;;;;;3.05;0.40;;;27.50;84.10;;;;;;5028811;28;20527;-40
2022/07/02 09:59:21;;;;;;;0.63;0.30;;;27.60;83.60;;;;;;5015782;28;20437;-41
2022/07/02 10:01:48;;;;;;;2.65;0.25;;;27.60;83.00;;;;;;5026286;28;20508;-39
2022/07/02 10:04:14;;;;;;;0.82;0.43;;;27.80;83.70;;;;;;5031244;28;20036;-41
2022/07/02 10:06:42;;;;;;;0.55;0.40;;;27.80;84.30;;;;;;5032614;28;20441;-35
2022/07/02 10:09:08;;;;;;;0.10;0.10;;;27.90;85.50;;;;;;5027204;28;20064;-40
2022/07/02 10:11:36;;;;;;;1.45;0.55;;;27.90;82.60;;;;;;5034270;28;20416;-36
2022/07/02 10:14:02;;;;;;;5.03;0.30;;;27.60;82.60;;;;;;5051357;28;20383;-40
2022/07/02 10:16:28;;;;;;;6.45;0.68;;;27.70;82.40;;;;;;5033003;28;20095;-40
2022/07/02 10:18:57;;;;;;;0.73;0.40;;;28.20;82.60;;;;;;5020257;28;20364;-40
2022/07/02 10:21:24;;;;;;;2.03;0.68;;;28.70;82.40;;;;;;5020582;28;20474;-41
2022/07/02 10:23:51;;;;;;;1.05;0.50;;;29.40;82.30;;;;;;5035971;28;20014;-39
2022/07/02 10:26:17;;;;;;;1.50;0.60;;;29.60;80.90;;;;;;5031018;28;20033;-40
2022/07/02 10:28:43;;;;;;;1.27;0.40;;;29.90;81.10;;;;;;5029290;28;20014;-39
2022/07/02 10:31:19;;;;;;;2.30;0.32;;;29.70;81.20;;;;;;5034782;28;20092;-38
2022/07/02 10:33:52;;;;;;;0.73;0.40;;;29.70;81.80;;;;;;5022437;28;20025;-41
2022/07/02 10:36:20;;;;;;;0.40;0.20;;;29.60;81.70;;;;;;5050073;28;20127;-40
2022/07/02 10:38:59;;;;;;;1.45;0.50;;;29.50;81.20;;;;;;5032047;28;20557;-39
2022/07/02 10:41:26;;;;;;;2.80;0.60;;;29.10;81.50;;;;;;5034747;28;20022;-40
2022/07/02 10:43:55;;;;;;;3.35;0.70;;;28.70;82.60;;;;;;5026638;28;20072;-42
2022/07/02 10:46:24;;;;;;;0.73;0.55;;;28.50;83.70;;;;;;5035040;28;20540;-34
2022/07/02 10:48:58;;;;;;;3.38;0.32;;;28.40;83.60;;;;;;5033741;28;20045;-36
2022/07/02 10:51:38;;;;;;;2.67;0.40;;;28.20;83.60;;;;;;5030483;28;20022;-38
2022/07/02 10:54:06;;;;;;;0.32;0.30;;;28.10;84.10;;;;;;5031385;28;20049;-35
2022/07/02 10:56:43;;;;;;;1.50;0.40;;;27.70;84.10;;;;;;5038811;28;20532;-34
2022/07/02 10:59:37;;;;;;;1.30;0.43;;;27.00;85.40;;;;;;5041920;28;20022;-32
2022/07/02 11:02:04;;;;;;;1.33;0.50;;;26.30;87.10;;;;;;5034535;28;20030;-47
2022/07/02 11:04:30;;;;;;;0.82;0.32;;;25.80;88.10;;;;;;5035589;28;20036;-32
2022/07/02 11:07:08;;;;;;;0.57;0.50;;;25.40;90.00;;;;;;5031049;28;20478;-35
2022/07/02 11:09:51;;;;;;;0.93;0.43;;;25.20;89.70;;;;;;5034710;28;20029;-35
2022/07/02 11:12:39;;;;;;;0.35;0.35;;;25.00;90.10;;;;;;5034325;28;20025;-38
2022/07/02 11:15:19;;;;;;;1.55;0.40;;;25.00;90.20;;;;;;5033099;28;20417;-33
2022/07/02 11:17:50;;;;;;;2.25;0.65;;;24.80;90.10;;;;;;5036074;28;20036;-33
2022/07/02 11:20:23;;;;;;;1.70;0.50;;;24.50;90.50;;;;;;5032858;28;20092;-31
2022/07/02 11:22:48;;;;;;;1.33;0.60;;;24.30;90.80;;;;;;5031128;28;20076;-32
2022/07/02 11:25:14;;;;;;;2.17;0.50;;;24.10;90.90;;;;;;5034111;28;20026;-42
2022/07/02 11:27:40;;;;;;;2.88;0.60;;;24.00;90.80;;;;;;5032604;28;20502;-31
2022/07/02 11:30:06;;;;;;;2.08;0.73;;;23.90;91.40;;;;;;5034181;28;20049;-38
2022/07/02 11:32:36;;;;;;;4.18;0.90;;;23.90;91.30;;;;;;5029745;28;20068;-37
2022/07/02 11:35:02;;;;;;;1.38;0.52;;;23.80;91.70;;;;;;5034709;28;20432;-39
2022/07/02 11:37:28;;;;;;;1.92;0.47;;;23.80;91.70;;;;;;5032504;28;20425;-38
2022/07/02 11:39:53;;;;;;;2.40;0.60;;;23.80;91.60;;;;;;5030972;28;20060;-38
2022/07/02 11:42:34;;;;;;;1.90;0.73;;;23.90;92.10;;;;;;5028895;28;20068;-36
2022/07/02 11:45:00;;;;;;;1.30;0.68;;;24.00;92.10;;;;;;5031631;28;20030;-38
2022/07/02 11:47:25;;;;;;;1.73;0.38;;;24.20;91.40;;;;;;5034174;28;20366;-39
2022/07/02 11:49:51;;;;;;;2.38;0.65;;;24.30;91.50;;;;;;5031614;28;20061;-40
2022/07/02 11:52:18;;;;;;;1.85;0.90;;;24.20;91.30;;;;;;5032084;28;20040;-37
2022/07/02 11:54:44;;;;;;;2.75;0.45;;;24.30;91.10;;;;;;5030895;28;20485;-39
2022/07/02 11:57:09;;;;;;;1.15;0.60;;;24.70;91.10;;;;;;5026335;28;20030;-38
2022/07/02 11:59:35;;;;;;;0.65;0.65;;;24.90;90.50;;;;;;5028930;28;20099;-38
2022/07/02 12:02:01;;;;;;;2.83;0.80;;;25.10;90.60;;;;;;5030394;28;20025;-37
2022/07/02 12:04:27;;;;;;;0.55;0.40;;;25.40;90.50;;;;;;5026463;28;20028;-36
2022/07/02 12:06:54;;;;;;;0.60;0.45;;;25.60;90.30;;;;;;5028801;28;20474;-39
2022/07/02 12:09:24;;;;;;;0.70;0.45;;;25.40;90.40;;;;;;5028097;28;20033;-37
2022/07/02 12:11:51;;;;;;;4.07;0.75;;;25.10;90.80;;;;;;5033053;28;20397;-64
2022/07/02 12:14:28;;;;;;;0.90;0.55;;;24.90;91.10;;;;;;5032440;28;20447;-33
2022/07/02 12:16:54;;;;;;;1.45;0.52;;;24.80;91.00;;;;;;5031633;28;20044;-34
2022/07/02 12:19:27;;;;;;;0.43;0.43;;;24.60;91.30;;;;;;5034103;28;20067;-32
2022/07/02 12:21:54;;;;;;;5.28;0.77;;;24.70;91.10;;;;;;5030811;28;20072;-37
2022/07/02 12:24:31;;;;;;;0.95;0.60;;;24.80;90.80;;;;;;5030316;28;20033;-33
2022/07/02 12:27:04;;;;;;;0.93;0.52;;;24.90;90.90;;;;;;5034151;28;20053;-35
2022/07/02 12:32:22;;;;;;;0.40;0.40;;;25.50;90.20;;;;;;5040586;28;20129;-35
2022/07/02 12:34:54;;;;;;;2.17;0.40;;;25.40;90.00;;;;;;5029683;28;20033;-36
2022/07/02 12:37:31;;;;;;;1.17;0.60;;;25.50;90.00;;;;;;5031215;28;20022;-41
2022/07/02 12:40:17;;;;;;;1.40;0.52;;;25.50;90.00;;;;;;5032941;28;20021;-38
2022/07/02 12:43:01;;;;;;;0.40;0.30;;;25.70;90.10;;;;;;5026383;28;20108;-39
2022/07/02 12:45:33;;;;;;;4.15;0.50;;;25.70;89.90;;;;;;5030458;28;20025;-42
2022/07/02 12:48:06;;;;;;;0.50;0.50;;;25.70;89.70;;;;;;5030691;28;20025;-40
2022/07/02 12:50:40;;;;;;;1.30;1.20;;;25.70;90.20;;;;;;5029667;28;20025;-38
2022/07/02 12:53:13;;;;;;;1.80;0.65;;;25.60;90.20;;;;;;5026732;28;20473;-49
2022/07/02 12:55:42;;;;;;;1.33;0.40;;;25.40;90.00;;;;;;5015706;28;20520;-39
2022/07/02 12:58:10;;;;;;;1.45;0.70;;;25.30;90.40;;;;;;5029973;28;20026;-35
2022/07/02 13:00:38;;;;;;;0.47;0.47;;;25.40;90.90;;;;;;5028543;28;20116;-36